createdAt,value
2018-01-13T00:00:22.810Z,0.00
2018-01-13T00:01:23.170Z,0.00
2018-01-13T00:02:23.049Z,0.00
2018-01-13T00:03:22.931Z,0.00
2018-01-13T00:04:22.829Z,0.00
2018-01-13T00:05:23.650Z,0.00
2018-01-13T00:06:44.832Z,0.00
2018-01-13T00:07:45.711Z,0.00
2018-01-13T00:08:45.127Z,0.00
2018-01-13T00:09:45.369Z,0.00
2018-01-13T00:11:05.835Z,0.00
2018-01-13T00:12:06.048Z,0.00
2018-01-13T00:13:06.270Z,0.00
2018-01-13T00:14:09.771Z,0.00
2018-01-13T00:15:10.145Z,0.00
2018-01-13T00:16:06.635Z,0.00
2018-01-13T00:17:05.946Z,0.00
2018-01-13T00:18:06.470Z,0.00
2018-01-13T00:19:06.411Z,0.00
2018-01-13T00:20:06.868Z,0.00
2018-01-13T00:21:06.084Z,0.00
2018-01-13T00:22:06.804Z,0.00
2018-01-13T00:23:06.036Z,0.00
2018-01-13T00:24:06.278Z,0.00
2018-01-13T00:25:06.579Z,0.00
2018-01-13T00:26:07.171Z,0.00
2018-01-13T00:27:06.217Z,0.00
2018-01-13T00:28:06.542Z,0.00
2018-01-13T00:29:06.884Z,0.00
2018-01-13T00:30:06.773Z,0.00
2018-01-13T00:31:06.500Z,0.00
2018-01-13T00:32:07.435Z,0.00
2018-01-13T00:33:07.233Z,0.00
2018-01-13T00:34:06.753Z,0.00
2018-01-13T00:35:06.617Z,0.00
2018-01-13T00:36:06.206Z,0.00
2018-01-13T00:37:06.716Z,0.00
2018-01-13T00:38:06.636Z,0.00
2018-01-13T00:39:06.577Z,0.00
2018-01-13T00:40:37.540Z,0.00
2018-01-13T00:41:34.132Z,0.00
2018-01-13T00:42:34.472Z,0.00
2018-01-13T00:43:33.772Z,0.00
2018-01-13T00:44:33.203Z,0.00
2018-01-13T00:45:34.059Z,0.00
2018-01-13T00:46:35.311Z,0.00
2018-01-13T00:47:33.710Z,0.00
2018-01-13T00:49:16.456Z,0.00
2018-01-13T00:50:20.025Z,0.00
2018-01-13T00:51:18.242Z,0.00
2018-01-13T00:52:22.902Z,0.00
2018-01-13T00:53:22.057Z,0.00
2018-01-13T00:54:20.760Z,0.00
2018-01-13T00:55:18.608Z,0.00
2018-01-13T00:56:17.948Z,0.00
2018-01-13T00:57:17.537Z,0.00
2018-01-13T00:58:59.656Z,0.00
2018-01-13T01:00:01.600Z,0.00
2018-01-13T01:01:02.497Z,0.00
2018-01-13T01:02:00.474Z,0.00
2018-01-13T01:03:03.249Z,0.00
2018-01-13T01:04:02.200Z,0.00
2018-01-13T01:04:59.502Z,0.00
2018-01-13T01:05:59.997Z,0.00
2018-01-13T01:06:59.523Z,0.00
2018-01-13T01:07:59.956Z,0.00
2018-01-13T01:09:01.695Z,0.00
2018-01-13T01:10:00.141Z,0.00
2018-01-13T01:11:24.168Z,0.00
2018-01-13T01:12:24.383Z,0.00
2018-01-13T01:13:23.219Z,0.00
2018-01-13T01:14:22.942Z,0.00
2018-01-13T01:15:23.555Z,0.00
2018-01-13T01:16:22.780Z,0.00
2018-01-13T01:17:23.215Z,0.00
2018-01-13T01:18:43.778Z,0.00
2018-01-13T01:19:44.611Z,0.00
2018-01-13T01:20:44.241Z,0.00
2018-01-13T01:21:45.040Z,0.00
2018-01-13T01:22:45.012Z,0.00
2018-01-13T01:23:44.442Z,0.00
2018-01-13T01:24:43.848Z,0.00
2018-01-13T01:25:44.550Z,0.00
2018-01-13T01:26:44.042Z,0.00
2018-01-13T01:27:44.858Z,0.00
2018-01-13T01:28:44.741Z,0.00
2018-01-13T01:30:05.515Z,0.00
2018-01-13T01:31:27.791Z,0.00
2018-01-13T01:32:27.684Z,0.00
2018-01-13T01:33:27.811Z,0.00
2018-01-13T01:34:27.335Z,0.00
2018-01-13T01:35:28.266Z,0.00
2018-01-13T01:36:28.345Z,0.00
2018-01-13T01:37:28.188Z,0.00
2018-01-13T01:38:27.479Z,0.00
2018-01-13T01:39:27.984Z,0.00
2018-01-13T01:40:27.201Z,0.00
2018-01-13T01:41:27.728Z,0.00
2018-01-13T01:42:27.208Z,0.00
2018-01-13T01:43:29.125Z,0.00
2018-01-13T01:44:28.115Z,0.00
2018-01-13T01:45:27.525Z,0.00
2018-01-13T01:46:27.979Z,0.00
2018-01-13T01:47:27.422Z,0.00
2018-01-13T01:48:27.940Z,0.00
2018-01-13T01:49:27.667Z,0.00
2018-01-13T01:50:27.386Z,0.00
2018-01-13T01:51:28.098Z,0.00
2018-01-13T01:52:27.819Z,0.00
2018-01-13T01:53:27.524Z,0.00
2018-01-13T01:54:28.014Z,0.00
2018-01-13T01:55:27.527Z,0.00
2018-01-13T01:56:26.958Z,0.00
2018-01-13T01:57:27.038Z,0.00
2018-01-13T01:58:27.224Z,0.00
2018-01-13T01:59:27.748Z,0.00
2018-01-13T02:00:27.852Z,0.00
2018-01-13T02:01:27.417Z,0.00
2018-01-13T02:02:27.588Z,0.00
2018-01-13T02:03:49.630Z,0.00
2018-01-13T02:04:50.185Z,0.00
2018-01-13T02:05:49.424Z,0.00
2018-01-13T02:06:50.106Z,0.00
2018-01-13T02:07:49.413Z,0.00
2018-01-13T02:08:49.719Z,0.00
2018-01-13T02:09:50.335Z,0.00
2018-01-13T02:10:49.739Z,0.00
2018-01-13T02:11:50.157Z,0.00
2018-01-13T02:12:49.306Z,0.00
2018-01-13T02:13:50.260Z,0.00
2018-01-13T02:14:50.074Z,0.00
2018-01-13T02:15:49.303Z,0.00
2018-01-13T02:16:49.765Z,0.00
2018-01-13T02:17:50.265Z,0.00
2018-01-13T02:18:49.433Z,0.00
2018-01-13T02:19:50.372Z,0.00
2018-01-13T02:20:49.906Z,0.00
2018-01-13T02:21:50.209Z,0.00
2018-01-13T02:22:49.737Z,0.00
2018-01-13T02:23:50.475Z,0.00
2018-01-13T02:24:50.000Z,2.00
2018-01-13T02:25:49.316Z,2.00
2018-01-13T02:26:49.856Z,0.00
2018-01-13T02:27:50.051Z,0.00
2018-01-13T02:28:49.264Z,0.00
2018-01-13T02:29:49.874Z,0.00
2018-01-13T02:30:50.459Z,0.00
2018-01-13T02:31:49.681Z,0.00
2018-01-13T02:32:50.155Z,0.00
2018-01-13T02:33:49.694Z,0.00
2018-01-13T02:34:50.607Z,0.00
2018-01-13T02:35:50.376Z,0.00
2018-01-13T02:36:49.554Z,0.00
2018-01-13T02:37:49.774Z,0.00
2018-01-13T02:38:50.324Z,0.00
2018-01-13T02:39:50.019Z,0.00
2018-01-13T02:40:50.615Z,0.00
2018-01-13T02:41:49.964Z,0.00
2018-01-13T02:42:50.187Z,0.00
2018-01-13T02:43:49.791Z,0.00
2018-01-13T02:44:50.358Z,0.00
2018-01-13T02:45:49.610Z,0.00
2018-01-13T02:46:49.771Z,0.00
2018-01-13T02:47:50.649Z,0.00
2018-01-13T02:48:49.673Z,0.00
2018-01-13T02:49:50.371Z,0.00
2018-01-13T02:51:12.743Z,0.00
2018-01-13T02:52:34.251Z,0.00
2018-01-13T02:53:34.718Z,0.00
2018-01-13T02:54:35.111Z,0.00
2018-01-13T02:55:34.669Z,0.00
2018-01-13T02:56:35.426Z,0.00
2018-01-13T02:57:35.171Z,0.00
2018-01-13T02:58:56.844Z,0.00
2018-01-13T02:59:56.168Z,0.00
2018-01-13T03:00:56.542Z,0.00
2018-01-13T03:01:55.994Z,0.00
2018-01-13T03:02:56.772Z,0.00
2018-01-13T03:03:56.021Z,0.00
2018-01-13T03:04:56.749Z,0.00
2018-01-13T03:05:55.978Z,0.00
2018-01-13T03:06:56.258Z,0.00
2018-01-13T03:07:56.421Z,0.00
2018-01-13T03:08:57.022Z,0.00
2018-01-13T03:09:56.260Z,0.00
2018-01-13T03:10:56.460Z,0.00
2018-01-13T03:11:57.343Z,0.00
2018-01-13T03:12:56.474Z,0.00
2018-01-13T03:13:57.009Z,0.00
2018-01-13T03:14:56.098Z,0.00
2018-01-13T03:15:56.882Z,0.00
2018-01-13T03:16:56.571Z,0.00
2018-01-13T03:17:56.300Z,0.00
2018-01-13T03:18:56.692Z,0.00
2018-01-13T03:19:55.836Z,0.00
2018-01-13T03:20:55.882Z,0.00
2018-01-13T03:21:56.582Z,0.00
2018-01-13T03:22:56.924Z,0.00
2018-01-13T03:23:56.051Z,0.00
2018-01-13T03:24:56.895Z,0.00
2018-01-13T03:25:56.564Z,0.00
2018-01-13T03:26:56.396Z,0.00
2018-01-13T03:27:58.388Z,0.00
2018-01-13T03:28:57.054Z,0.00
2018-01-13T03:29:56.689Z,0.00
2018-01-13T03:31:05.556Z,0.00
2018-01-13T03:31:56.890Z,0.00
2018-01-13T03:32:56.512Z,0.00
2018-01-13T03:33:56.912Z,0.00
2018-01-13T03:34:56.158Z,0.00
2018-01-13T03:35:56.812Z,0.00
2018-01-13T03:36:56.339Z,0.00
2018-01-13T03:37:56.658Z,0.00
2018-01-13T03:38:57.232Z,0.00
2018-01-13T03:39:56.907Z,0.00
2018-01-13T03:40:56.134Z,0.00
2018-01-13T03:41:56.506Z,0.00
2018-01-13T03:42:56.912Z,0.00
2018-01-13T03:43:56.053Z,0.00
2018-01-13T03:44:56.547Z,0.00
2018-01-13T03:45:57.053Z,0.00
2018-01-13T03:46:56.414Z,0.00
2018-01-13T03:47:56.698Z,0.00
2018-01-13T03:48:56.177Z,0.00
2018-01-13T03:49:56.583Z,0.00
2018-01-13T03:50:56.031Z,0.00
2018-01-13T03:51:56.353Z,0.00
2018-01-13T03:52:57.208Z,0.00
2018-01-13T03:53:56.450Z,0.00
2018-01-13T03:54:56.122Z,0.00
2018-01-13T03:55:56.584Z,0.00
2018-01-13T03:56:55.856Z,0.00
2018-01-13T03:57:55.915Z,0.00
2018-01-13T03:58:56.147Z,0.00
2018-01-13T03:59:57.037Z,0.00
2018-01-13T04:00:56.355Z,0.00
2018-01-13T04:02:18.892Z,0.00
2018-01-13T04:03:19.613Z,0.00
2018-01-13T04:04:19.744Z,0.00
2018-01-13T04:05:19.336Z,0.00
2018-01-13T04:06:20.154Z,0.00
2018-01-13T04:07:19.891Z,0.00
2018-01-13T04:08:19.042Z,0.00
2018-01-13T04:09:20.263Z,0.00
2018-01-13T04:10:19.770Z,0.00
2018-01-13T04:11:20.046Z,0.00
2018-01-13T04:12:19.200Z,0.00
2018-01-13T04:13:19.738Z,0.00
2018-01-13T04:14:19.273Z,0.00
2018-01-13T04:16:02.213Z,0.00
2018-01-13T04:17:02.332Z,0.00
2018-01-13T04:18:02.410Z,0.00
2018-01-13T04:19:02.722Z,0.00
2018-01-13T04:20:02.460Z,0.00
2018-01-13T04:21:02.732Z,0.00
2018-01-13T04:22:02.394Z,0.00
2018-01-13T04:23:03.288Z,0.00
2018-01-13T04:24:02.906Z,0.00
2018-01-13T04:25:02.345Z,0.00
2018-01-13T04:26:02.637Z,0.00
2018-01-13T04:27:02.759Z,0.00
2018-01-13T04:28:02.523Z,0.00
2018-01-13T04:29:03.017Z,0.00
2018-01-13T04:30:02.246Z,0.00
2018-01-13T04:31:02.438Z,0.00
2018-01-13T04:32:02.653Z,0.00
2018-01-13T04:33:23.023Z,0.00
2018-01-13T04:34:23.565Z,0.00
2018-01-13T04:35:23.863Z,0.00
2018-01-13T04:36:23.549Z,0.00
2018-01-13T04:37:23.988Z,0.00
2018-01-13T04:38:23.210Z,0.00
2018-01-13T04:39:23.997Z,0.00
2018-01-13T04:40:23.775Z,0.00
2018-01-13T04:41:23.318Z,0.00
2018-01-13T04:42:23.798Z,0.00
2018-01-13T04:43:23.590Z,0.00
2018-01-13T04:44:24.525Z,0.00
2018-01-13T04:45:23.755Z,0.00
2018-01-13T04:46:24.365Z,0.00
2018-01-13T04:47:23.778Z,0.00
2018-01-13T04:48:44.793Z,0.00
2018-01-13T04:49:45.418Z,0.00
2018-01-13T04:50:44.517Z,0.00
2018-01-13T04:52:05.768Z,0.00
2018-01-13T04:53:06.252Z,0.00
2018-01-13T04:54:07.201Z,0.00
2018-01-13T04:55:06.416Z,0.00
2018-01-13T04:56:06.080Z,0.00
2018-01-13T04:57:06.330Z,0.00
2018-01-13T04:58:06.916Z,0.00
2018-01-13T04:59:06.057Z,0.00
2018-01-13T05:00:06.265Z,0.00
2018-01-13T05:01:07.280Z,0.00
2018-01-13T05:02:06.688Z,0.00
2018-01-13T05:03:06.309Z,0.00
2018-01-13T05:04:07.437Z,0.00
2018-01-13T05:05:06.935Z,0.00
2018-01-13T05:06:06.110Z,0.00
2018-01-13T05:07:49.583Z,0.00
2018-01-13T05:09:21.021Z,0.00
2018-01-13T05:09:49.566Z,0.00
2018-01-13T05:10:50.364Z,0.00
2018-01-13T05:11:49.756Z,0.00
2018-01-13T05:12:50.789Z,0.00
2018-01-13T05:13:49.987Z,0.00
2018-01-13T05:14:49.608Z,0.00
2018-01-13T05:15:50.301Z,0.00
2018-01-13T05:16:49.558Z,0.00
2018-01-13T05:17:49.925Z,0.00
2018-01-13T05:18:50.004Z,0.00
2018-01-13T05:19:50.419Z,0.00
2018-01-13T05:20:50.302Z,0.00
2018-01-13T05:21:49.536Z,0.00
2018-01-13T05:22:50.045Z,0.00
2018-01-13T05:23:49.211Z,0.00
2018-01-13T05:24:49.507Z,0.00
2018-01-13T05:25:50.166Z,0.00
2018-01-13T05:26:49.416Z,0.00
2018-01-13T05:27:50.163Z,0.00
2018-01-13T05:28:49.550Z,0.00
2018-01-13T05:29:49.835Z,0.00
2018-01-13T05:30:49.267Z,0.00
2018-01-13T05:31:49.798Z,0.00
2018-01-13T05:32:50.809Z,0.00
2018-01-13T05:33:50.270Z,0.00
2018-01-13T05:34:49.329Z,0.00
2018-01-13T05:35:49.607Z,0.00
2018-01-13T05:36:50.326Z,0.00
2018-01-13T05:37:49.783Z,0.00
2018-01-13T05:38:49.823Z,0.00
2018-01-13T05:39:50.649Z,0.00
2018-01-13T05:40:50.209Z,0.00
2018-01-13T05:41:49.316Z,0.00
2018-01-13T05:42:50.069Z,0.00
2018-01-13T05:43:49.803Z,0.00
2018-01-13T05:44:50.036Z,0.00
2018-01-13T05:45:49.633Z,0.00
2018-01-13T05:46:50.049Z,0.00
2018-01-13T05:47:50.336Z,0.00
2018-01-13T05:48:49.514Z,0.00
2018-01-13T05:49:49.752Z,0.00
2018-01-13T05:50:50.021Z,0.00
2018-01-13T05:51:49.694Z,0.00
2018-01-13T05:52:50.144Z,0.00
2018-01-13T05:53:49.820Z,0.00
2018-01-13T05:54:50.098Z,0.00
2018-01-13T05:55:50.142Z,0.00
2018-01-13T05:56:49.471Z,0.00
2018-01-13T05:57:49.608Z,0.00
2018-01-13T05:58:49.725Z,0.00
2018-01-13T05:59:50.124Z,0.00
2018-01-13T06:00:49.398Z,0.00
2018-01-13T06:01:49.946Z,0.00
2018-01-13T06:02:49.706Z,0.00
2018-01-13T06:03:49.960Z,0.00
2018-01-13T06:04:49.977Z,0.00
2018-01-13T06:06:10.984Z,0.00
2018-01-13T06:07:11.254Z,0.00
2018-01-13T06:08:12.155Z,0.00
2018-01-13T06:09:11.875Z,0.00
2018-01-13T06:10:11.392Z,0.00
2018-01-13T06:11:10.774Z,0.00
2018-01-13T06:12:11.348Z,0.00
2018-01-13T06:13:11.036Z,0.00
2018-01-13T06:14:11.094Z,0.00
2018-01-13T06:15:32.834Z,0.00
2018-01-13T06:16:33.309Z,0.00
2018-01-13T06:17:32.764Z,0.00
2018-01-13T06:18:54.894Z,0.00
2018-01-13T06:19:55.612Z,0.00
2018-01-13T06:20:55.323Z,0.00
2018-01-13T06:21:55.368Z,0.00
2018-01-13T06:22:54.727Z,0.00
2018-01-13T06:23:55.282Z,0.00
2018-01-13T06:24:55.330Z,0.00
2018-01-13T06:25:54.605Z,0.00
2018-01-13T06:26:55.288Z,0.00
2018-01-13T06:27:55.089Z,0.00
2018-01-13T06:28:55.603Z,0.00
2018-01-13T06:29:55.386Z,0.00
2018-01-13T06:30:54.711Z,0.00
2018-01-13T06:31:55.335Z,0.00
2018-01-13T06:33:16.191Z,0.00
2018-01-13T06:34:16.650Z,0.00
2018-01-13T06:35:37.974Z,0.00
2018-01-13T06:36:38.441Z,0.00
2018-01-13T06:37:37.722Z,0.00
2018-01-13T06:39:20.450Z,0.00
2018-01-13T06:40:20.829Z,0.00
2018-01-13T06:41:21.044Z,0.00
2018-01-13T06:42:21.245Z,0.00
2018-01-13T06:43:42.075Z,0.00
2018-01-13T06:44:42.882Z,1.00
2018-01-13T06:45:42.232Z,1.00
2018-01-13T06:46:42.860Z,0.00
2018-01-13T06:47:43.350Z,0.00
2018-01-13T06:48:42.674Z,1.00
2018-01-13T06:49:43.397Z,1.00
2018-01-13T06:51:25.502Z,1.00
2018-01-13T06:52:26.360Z,1.00
2018-01-13T06:53:25.854Z,2.00
2018-01-13T06:54:26.141Z,2.00
2018-01-13T06:55:25.464Z,2.00
2018-01-13T06:56:26.220Z,2.00
2018-01-13T06:57:26.481Z,3.00
2018-01-13T06:58:26.118Z,3.00
2018-01-13T06:59:47.844Z,4.00
2018-01-13T07:00:48.625Z,5.00
2018-01-13T07:01:48.150Z,6.00
2018-01-13T07:02:47.683Z,7.00
2018-01-13T07:03:47.985Z,9.00
2018-01-13T07:04:48.783Z,10.00
2018-01-13T07:05:48.500Z,12.00
2018-01-13T07:06:47.910Z,14.00
2018-01-13T07:07:48.070Z,17.00
2018-01-13T07:08:48.641Z,19.00
2018-01-13T07:09:49.446Z,23.00
2018-01-13T07:10:47.679Z,28.00
2018-01-13T07:11:48.198Z,33.00
2018-01-13T07:12:48.068Z,36.00
2018-01-13T07:13:48.201Z,41.00
2018-01-13T07:14:48.329Z,49.00
2018-01-13T07:15:47.872Z,56.00
2018-01-13T07:16:48.401Z,65.00
2018-01-13T07:17:47.987Z,73.00
2018-01-13T07:18:48.508Z,86.00
2018-01-13T07:19:48.060Z,97.00
2018-01-13T07:20:48.254Z,108.00
2018-01-13T07:21:47.521Z,121.00
2018-01-13T07:22:47.656Z,136.00
2018-01-13T07:23:47.852Z,152.00
2018-01-13T07:24:48.304Z,166.00
2018-01-13T07:26:32.254Z,190.00
2018-01-13T07:27:32.840Z,214.00
2018-01-13T07:28:33.761Z,248.00
2018-01-13T07:29:33.367Z,267.00
2018-01-13T07:30:42.302Z,285.00
2018-01-13T07:31:32.709Z,300.00
2018-01-13T07:32:33.117Z,328.00
2018-01-13T07:33:32.628Z,359.00
2018-01-13T07:34:33.592Z,388.00
2018-01-13T07:35:33.460Z,415.00
2018-01-13T07:36:33.012Z,452.00
2018-01-13T07:37:32.765Z,493.00
2018-01-13T07:38:33.363Z,522.00
2018-01-13T07:39:32.840Z,532.00
2018-01-13T07:40:33.542Z,551.00
2018-01-13T07:41:32.895Z,584.00
2018-01-13T07:42:33.936Z,602.00
2018-01-13T07:43:32.865Z,636.00
2018-01-13T07:44:54.832Z,698.00
2018-01-13T07:45:54.642Z,736.00
2018-01-13T07:46:54.299Z,791.00
2018-01-13T07:47:53.909Z,854.00
2018-01-13T07:48:54.233Z,903.00
2018-01-13T07:49:54.994Z,954.00
2018-01-13T07:50:54.743Z,1007.00
2018-01-13T07:51:54.938Z,1055.00
2018-01-13T07:52:54.416Z,1091.00
2018-01-13T07:53:55.164Z,1139.00
2018-01-13T07:54:54.562Z,1192.00
2018-01-13T07:55:56.593Z,1258.00
2018-01-13T07:56:53.956Z,1322.00
2018-01-13T07:57:54.721Z,1393.00
2018-01-13T07:58:53.943Z,1463.00
2018-01-13T07:59:54.757Z,1530.00
2018-01-13T08:00:54.884Z,1606.00
2018-01-13T08:01:54.710Z,1673.00
2018-01-13T08:02:54.705Z,1725.00
2018-01-13T08:03:54.326Z,1772.00
2018-01-13T08:04:53.734Z,1822.00
2018-01-13T08:05:54.472Z,1805.00
2018-01-13T08:06:53.753Z,1808.00
2018-01-13T08:07:53.963Z,1912.00
2018-01-13T08:08:55.274Z,1992.00
2018-01-13T08:09:53.599Z,2022.00
2018-01-13T08:10:53.911Z,2171.00
2018-01-13T08:11:54.524Z,2263.00
2018-01-13T08:12:54.032Z,2330.00
2018-01-13T08:13:54.934Z,2366.00
2018-01-13T08:14:54.259Z,2457.00
2018-01-13T08:15:54.052Z,2468.00
2018-01-13T08:17:15.543Z,2726.00
2018-01-13T08:18:16.169Z,2831.00
2018-01-13T08:19:15.785Z,2937.00
2018-01-13T08:20:16.485Z,2976.00
2018-01-13T08:21:16.232Z,2841.00
2018-01-13T08:22:16.581Z,3076.00
2018-01-13T08:23:16.143Z,3186.00
2018-01-13T08:24:16.103Z,3318.00
2018-01-13T08:25:37.300Z,3459.00
2018-01-13T08:26:37.933Z,3498.00
2018-01-13T08:27:59.189Z,3563.00
2018-01-13T08:29:00.013Z,3712.00
2018-01-13T08:29:59.825Z,3741.00
2018-01-13T08:30:59.500Z,3906.00
2018-01-13T08:32:20.251Z,4166.00
2018-01-13T08:33:42.472Z,4419.00
2018-01-13T08:34:43.030Z,4602.00
2018-01-13T08:35:42.446Z,4803.00
2018-01-13T08:36:43.288Z,4985.00
2018-01-13T08:37:43.181Z,5129.00
2018-01-13T08:38:42.850Z,5301.00
2018-01-13T08:39:43.716Z,5492.00
2018-01-13T08:40:42.601Z,5643.00
2018-01-13T08:41:43.302Z,5719.00
2018-01-13T08:42:42.840Z,5762.00
2018-01-13T08:43:42.638Z,5845.00
2018-01-13T08:44:43.341Z,5932.00
2018-01-13T08:45:42.811Z,5974.00
2018-01-13T08:46:42.700Z,6144.00
2018-01-13T08:48:04.430Z,6238.00
2018-01-13T08:49:05.522Z,6238.00
2018-01-13T08:50:04.274Z,6435.00
2018-01-13T08:51:27.693Z,6619.00
2018-01-13T08:52:28.044Z,6881.00
2018-01-13T08:53:27.855Z,7111.00
2018-01-13T08:54:28.155Z,7337.00
2018-01-13T08:55:27.587Z,7505.00
2018-01-13T08:56:27.880Z,7608.00
2018-01-13T08:57:49.112Z,7821.00
2018-01-13T08:58:49.582Z,7700.00
2018-01-13T08:59:48.806Z,7736.00
2018-01-13T09:00:49.392Z,7467.00
2018-01-13T09:01:48.897Z,6894.00
2018-01-13T09:02:49.692Z,6653.00
2018-01-13T09:03:49.396Z,6465.00
2018-01-13T09:04:48.636Z,6232.00
2018-01-13T09:05:48.993Z,6759.00
2018-01-13T09:06:49.422Z,6187.00
2018-01-13T09:07:49.062Z,5929.00
2018-01-13T09:09:11.584Z,6458.00
2018-01-13T09:10:10.952Z,6241.00
2018-01-13T09:11:11.758Z,6717.00
2018-01-13T09:12:11.340Z,6483.00
2018-01-13T09:13:11.370Z,7065.00
2018-01-13T09:14:11.145Z,6394.00
2018-01-13T09:15:32.705Z,5910.00
2018-01-13T09:16:33.737Z,6424.00
2018-01-13T09:17:33.670Z,6701.00
2018-01-13T09:18:33.184Z,6239.00
2018-01-13T09:19:32.924Z,5965.00
2018-01-13T09:20:33.186Z,6816.00
2018-01-13T09:21:32.371Z,6673.00
2018-01-13T09:22:33.399Z,6317.00
2018-01-13T09:23:33.626Z,6120.00
2018-01-13T09:24:34.118Z,6775.00
2018-01-13T09:25:32.595Z,6350.00
2018-01-13T09:26:33.187Z,6510.00
2018-01-13T09:27:32.989Z,6986.00
2018-01-13T09:28:32.759Z,6137.00
2018-01-13T09:29:33.209Z,6147.00
2018-01-13T09:30:33.006Z,6642.00
2018-01-13T09:31:33.015Z,7063.00
2018-01-13T09:32:32.475Z,7300.00
2018-01-13T09:33:32.954Z,5850.00
2018-01-13T09:34:32.505Z,5761.00
2018-01-13T09:35:33.062Z,5723.00
2018-01-13T09:36:33.043Z,5270.00
2018-01-13T09:37:32.688Z,4364.00
2018-01-13T09:38:33.271Z,4102.00
2018-01-13T09:39:33.166Z,4597.00
2018-01-13T09:40:32.532Z,4791.00
2018-01-13T09:41:32.968Z,5878.00
2018-01-13T09:42:32.827Z,6844.00
2018-01-13T09:43:33.023Z,7232.00
2018-01-13T09:44:55.974Z,7083.00
2018-01-13T09:46:17.769Z,6727.00
2018-01-13T09:47:18.518Z,7432.00
2018-01-13T09:48:18.499Z,7472.00
2018-01-13T09:49:18.109Z,7681.00
2018-01-13T09:50:17.418Z,7334.00
2018-01-13T09:51:18.428Z,8516.00
2018-01-13T09:52:18.418Z,8715.00
2018-01-13T09:53:18.257Z,8677.00
2018-01-13T09:54:18.065Z,8532.00
2018-01-13T09:55:18.249Z,8606.00
2018-01-13T09:56:40.287Z,9025.00
2018-01-13T09:57:38.654Z,8292.00
2018-01-13T09:59:00.484Z,9900.00
2018-01-13T10:00:01.388Z,10004.00
2018-01-13T10:01:01.352Z,8931.00
2018-01-13T10:02:00.952Z,8924.00
2018-01-13T10:03:00.503Z,9228.00
2018-01-13T10:04:01.018Z,9390.00
2018-01-13T10:05:00.556Z,9954.00
2018-01-13T10:06:01.465Z,9971.00
2018-01-13T10:07:01.118Z,8864.00
2018-01-13T10:08:22.446Z,8388.00
2018-01-13T10:09:23.251Z,10179.00
2018-01-13T10:10:22.887Z,9792.00
2018-01-13T10:11:23.098Z,8769.00
2018-01-13T10:12:22.517Z,8982.00
2018-01-13T10:13:23.508Z,9168.00
2018-01-13T10:14:22.988Z,9125.00
2018-01-13T10:15:22.491Z,8957.00
2018-01-13T10:16:22.874Z,8806.00
2018-01-13T10:17:23.356Z,7894.00
2018-01-13T10:18:44.316Z,7527.00
2018-01-13T10:19:44.225Z,8396.00
2018-01-13T10:21:07.301Z,8097.00
2018-01-13T10:22:07.244Z,8351.00
2018-01-13T10:23:07.245Z,8254.00
2018-01-13T10:24:07.321Z,7488.00
2018-01-13T10:25:07.379Z,7105.00
2018-01-13T10:26:07.017Z,8898.00
2018-01-13T10:27:07.079Z,10490.00
2018-01-13T10:28:08.126Z,9077.00
2018-01-13T10:29:06.947Z,8077.00
2018-01-13T10:30:09.125Z,7990.00
2018-01-13T10:31:07.166Z,8786.00
2018-01-13T10:32:08.484Z,10453.00
2018-01-13T10:33:07.282Z,11088.00
2018-01-13T10:34:07.252Z,11060.00
2018-01-13T10:35:07.202Z,10785.00
2018-01-13T10:36:07.037Z,11068.00
2018-01-13T10:37:08.897Z,10797.00
2018-01-13T10:38:07.730Z,12000.00
2018-01-13T10:39:07.109Z,12598.00
2018-01-13T10:40:06.650Z,12362.00
2018-01-13T10:41:07.063Z,12558.00
2018-01-13T10:42:07.690Z,12694.00
2018-01-13T10:43:07.492Z,13229.00
2018-01-13T10:44:07.264Z,12907.00
2018-01-13T10:45:06.960Z,12383.00
2018-01-13T10:46:08.196Z,12180.00
2018-01-13T10:47:07.510Z,11661.00
2018-01-13T10:48:07.112Z,11103.00
2018-01-13T10:49:06.604Z,12792.00
2018-01-13T10:50:07.668Z,13418.00
2018-01-13T10:51:07.688Z,12571.00
2018-01-13T10:52:07.527Z,12586.00
2018-01-13T10:53:07.204Z,14714.00
2018-01-13T10:54:07.158Z,14863.00
2018-01-13T10:55:07.104Z,13819.00
2018-01-13T10:56:06.544Z,13106.00
2018-01-13T10:57:06.880Z,11621.00
2018-01-13T10:58:07.646Z,12269.00
2018-01-13T10:59:07.521Z,13388.00
2018-01-13T11:00:07.128Z,15880.00
2018-01-13T11:01:07.019Z,18128.00
2018-01-13T11:02:07.605Z,21264.00
2018-01-13T11:03:06.900Z,19664.00
2018-01-13T11:04:08.120Z,15053.00
2018-01-13T11:05:06.974Z,13138.00
2018-01-13T11:06:07.672Z,11149.00
2018-01-13T11:07:07.282Z,10753.00
2018-01-13T11:08:07.364Z,10177.00
2018-01-13T11:09:06.847Z,9767.00
2018-01-13T11:10:07.153Z,9153.00
2018-01-13T11:11:07.104Z,8893.00
2018-01-13T11:12:07.895Z,11353.00
2018-01-13T11:13:07.293Z,12632.00
2018-01-13T11:14:08.133Z,13244.00
2018-01-13T11:15:07.277Z,10419.00
2018-01-13T11:16:07.273Z,17024.00
2018-01-13T11:17:06.912Z,19936.00
2018-01-13T11:18:08.062Z,20144.00
2018-01-13T11:19:07.449Z,20896.00
2018-01-13T11:20:06.919Z,19952.00
2018-01-13T11:21:08.753Z,14060.00
2018-01-13T11:22:07.095Z,8809.00
2018-01-13T11:23:06.749Z,14928.00
2018-01-13T11:24:29.726Z,9859.00
2018-01-13T11:25:29.921Z,8618.00
2018-01-13T11:27:13.757Z,9310.00
2018-01-13T11:28:34.992Z,9563.00
2018-01-13T11:29:35.567Z,9213.00
2018-01-13T11:30:35.304Z,9888.00
2018-01-13T11:31:35.877Z,8525.00
2018-01-13T11:32:35.573Z,8074.00
2018-01-13T11:33:36.251Z,8393.00
2018-01-13T11:34:58.991Z,9337.00
2018-01-13T11:35:59.123Z,9054.00
2018-01-13T11:36:58.868Z,8314.00
2018-01-13T11:37:59.024Z,9014.00
2018-01-13T11:38:58.959Z,9972.00
2018-01-13T11:39:59.304Z,10345.00
2018-01-13T11:40:57.805Z,10694.00
2018-01-13T11:41:58.310Z,12274.00
2018-01-13T11:42:58.557Z,10124.00
2018-01-13T11:43:58.318Z,8962.00
2018-01-13T11:44:58.115Z,10913.00
2018-01-13T11:45:58.810Z,11656.00
2018-01-13T11:46:58.484Z,10786.00
2018-01-13T11:47:58.328Z,9909.00
2018-01-13T11:48:58.624Z,9009.00
2018-01-13T11:49:59.096Z,9137.00
2018-01-13T11:50:59.064Z,8684.00
2018-01-13T11:51:58.622Z,7710.00
2018-01-13T11:52:58.459Z,7963.00
2018-01-13T11:53:58.590Z,8957.00
2018-01-13T11:54:58.430Z,8148.00
2018-01-13T11:56:19.720Z,9217.00
2018-01-13T11:57:20.178Z,9983.00
2018-01-13T11:58:20.295Z,10244.00
2018-01-13T11:59:19.955Z,11389.00
2018-01-13T12:00:20.777Z,10658.00
2018-01-13T12:01:20.643Z,9090.00
2018-01-13T12:02:20.229Z,8503.00
2018-01-13T12:03:19.591Z,9410.00
2018-01-13T12:04:20.824Z,10521.00
2018-01-13T12:05:21.288Z,10323.00
2018-01-13T12:06:19.847Z,8512.00
2018-01-13T12:07:20.095Z,7658.00
2018-01-13T12:08:20.931Z,7473.00
2018-01-13T12:09:20.297Z,7935.00
2018-01-13T12:10:20.026Z,7396.00
2018-01-13T12:11:20.965Z,6580.00
2018-01-13T12:12:21.748Z,6982.00
2018-01-13T12:13:20.937Z,7260.00
2018-01-13T12:14:21.093Z,7490.00
2018-01-13T12:15:20.961Z,8050.00
2018-01-13T12:16:20.446Z,8335.00
2018-01-13T12:17:20.864Z,8351.00
2018-01-13T12:18:21.182Z,7218.00
2018-01-13T12:19:20.615Z,6995.00
2018-01-13T12:20:20.410Z,7960.00
2018-01-13T12:21:47.955Z,7335.00
2018-01-13T12:22:49.275Z,6293.00
2018-01-13T12:23:50.136Z,6467.00
2018-01-13T12:24:49.592Z,6849.00
2018-01-13T12:25:48.511Z,6636.00
2018-01-13T12:26:53.644Z,6192.00
2018-01-13T12:27:48.454Z,6506.00
2018-01-13T12:28:48.259Z,6794.00
2018-01-13T12:29:49.369Z,6669.00
2018-01-13T12:30:48.797Z,6922.00
2018-01-13T12:31:52.737Z,8148.00
2018-01-13T12:32:49.433Z,8153.00
2018-01-13T12:33:49.644Z,7710.00
2018-01-13T12:34:48.476Z,7362.00
2018-01-13T12:35:48.129Z,5828.00
2018-01-13T12:36:49.051Z,5586.00
2018-01-13T12:37:49.078Z,5696.00
2018-01-13T12:38:49.158Z,5442.00
2018-01-13T12:40:32.782Z,5166.00
2018-01-13T12:41:56.320Z,6422.00
2018-01-13T12:43:18.021Z,6276.00
2018-01-13T12:44:18.427Z,6814.00
2018-01-13T12:45:18.797Z,6163.00
2018-01-13T12:46:18.547Z,6021.00
2018-01-13T12:47:19.778Z,6213.00
2018-01-13T12:48:41.027Z,6949.00
2018-01-13T12:49:46.594Z,6257.00
2018-01-13T12:50:41.592Z,6021.00
2018-01-13T12:51:41.187Z,5797.00
2018-01-13T12:52:42.220Z,6028.00
2018-01-13T12:54:02.077Z,6759.00
2018-01-13T12:55:02.576Z,6988.00
2018-01-13T12:56:25.923Z,6693.00
2018-01-13T12:57:24.285Z,5724.00
2018-01-13T12:58:26.208Z,5399.00
2018-01-13T12:59:25.011Z,5480.00
2018-01-13T13:00:24.829Z,5305.00
2018-01-13T13:01:26.313Z,5144.00
2018-01-13T13:02:47.442Z,5530.00
2018-01-13T13:03:49.306Z,5916.00
2018-01-13T13:04:49.995Z,6062.00
2018-01-13T13:05:49.524Z,5504.00
2018-01-13T13:06:49.902Z,5016.00
2018-01-13T13:07:49.358Z,4637.00
2018-01-13T13:08:49.925Z,4825.00